createdAt,value
2018-10-05T00:00:45.051Z,9.30
2018-10-05T00:03:13.491Z,9.40
2018-10-05T00:05:41.926Z,9.40
2018-10-05T00:08:10.385Z,9.40
2018-10-05T00:10:38.785Z,9.30
2018-10-05T00:13:07.281Z,9.30
2018-10-05T00:15:35.821Z,9.30
2018-10-05T00:18:04.316Z,9.20
2018-10-05T00:20:32.821Z,9.20
2018-10-05T00:23:01.237Z,9.10
2018-10-05T00:25:29.669Z,9.10
2018-10-05T00:27:58.119Z,9.00
2018-10-05T00:30:26.580Z,9.10
2018-10-05T00:32:55.000Z,9.10
2018-10-05T00:35:23.459Z,9.10
2018-10-05T00:37:52.031Z,9.00
2018-10-05T00:40:20.424Z,9.00
2018-10-05T00:42:48.845Z,9.00
2018-10-05T00:45:17.271Z,9.00
2018-10-05T00:47:45.745Z,8.90
2018-10-05T00:50:14.183Z,8.90
2018-10-05T00:52:42.636Z,8.80
2018-10-05T00:55:11.074Z,8.80
2018-10-05T00:57:39.540Z,8.80
2018-10-05T01:00:08.084Z,8.80
2018-10-05T01:02:36.576Z,8.70
2018-10-05T01:05:05.079Z,8.70
2018-10-05T01:07:33.491Z,8.70
2018-10-05T01:10:01.998Z,8.70
2018-10-05T01:12:30.615Z,8.70
2018-10-05T01:14:59.121Z,8.70
2018-10-05T01:17:27.568Z,8.70
2018-10-05T01:19:56.108Z,8.60
2018-10-05T01:22:24.675Z,8.60
2018-10-05T01:24:53.360Z,8.60
2018-10-05T01:27:21.892Z,8.50
2018-10-05T01:29:50.876Z,8.60
2018-10-05T01:32:19.624Z,8.60
2018-10-05T01:34:48.565Z,8.50
2018-10-05T01:37:18.207Z,8.50
2018-10-05T01:39:47.047Z,8.50
2018-10-05T01:42:16.123Z,8.50
2018-10-05T01:44:45.184Z,8.50
2018-10-05T01:47:14.155Z,8.40
2018-10-05T01:49:43.488Z,8.40
2018-10-05T01:52:12.504Z,8.40
2018-10-05T01:54:41.498Z,8.40
2018-10-05T01:57:10.016Z,8.40
2018-10-05T01:59:39.057Z,8.30
2018-10-05T02:02:07.670Z,8.30
2018-10-05T02:04:36.931Z,8.30
2018-10-05T02:07:06.042Z,8.30
2018-10-05T02:09:34.927Z,8.30
2018-10-05T02:12:03.979Z,8.30
2018-10-05T02:14:33.501Z,8.30
2018-10-05T02:17:02.552Z,8.20
2018-10-05T02:19:31.373Z,8.20
2018-10-05T02:22:00.495Z,8.20
2018-10-05T02:24:29.434Z,8.20
2018-10-05T02:26:58.313Z,8.20
2018-10-05T02:29:27.364Z,8.20
2018-10-05T02:31:56.933Z,8.20
2018-10-05T02:34:25.862Z,8.10
2018-10-05T02:36:54.672Z,8.10
2018-10-05T02:39:23.584Z,8.10
2018-10-05T02:41:52.538Z,8.10
2018-10-05T02:44:21.193Z,8.10
2018-10-05T02:46:49.879Z,8.00
2018-10-05T02:49:18.685Z,8.10
2018-10-05T02:51:47.520Z,8.00
2018-10-05T02:54:16.377Z,8.10
2018-10-05T02:56:45.817Z,8.00
2018-10-05T02:59:15.005Z,8.00
2018-10-05T03:01:54.820Z,8.00
2018-10-05T03:04:23.808Z,8.00
2018-10-05T03:06:52.825Z,8.00
2018-10-05T03:09:22.315Z,8.00
2018-10-05T03:11:51.217Z,8.00
2018-10-05T03:14:19.967Z,8.00
2018-10-05T03:16:48.862Z,8.00
2018-10-05T03:19:17.467Z,8.10
2018-10-05T03:21:46.246Z,8.00
2018-10-05T03:24:14.908Z,8.00
2018-10-05T03:26:43.455Z,8.00
2018-10-05T03:29:11.946Z,8.00
2018-10-05T03:31:40.883Z,8.00
2018-10-05T03:34:09.529Z,7.90
2018-10-05T03:36:38.384Z,7.90
2018-10-05T03:39:07.474Z,7.90
2018-10-05T03:41:36.724Z,8.00
2018-10-05T03:44:05.678Z,8.00
2018-10-05T03:46:35.097Z,8.10
2018-10-05T03:49:04.162Z,8.10
2018-10-05T03:51:33.196Z,8.10
2018-10-05T03:54:02.299Z,8.10
2018-10-05T03:56:31.964Z,8.10
2018-10-05T03:59:00.542Z,8.20
2018-10-05T04:01:29.500Z,8.20
2018-10-05T04:03:58.358Z,8.20
2018-10-05T04:06:27.850Z,8.20
2018-10-05T04:08:56.726Z,8.20
2018-10-05T04:11:26.023Z,8.10
2018-10-05T04:13:55.202Z,8.10
2018-10-05T04:16:26.195Z,8.00
2018-10-05T04:18:55.735Z,8.00
2018-10-05T04:21:25.111Z,7.90
2018-10-05T04:23:54.286Z,7.90
2018-10-05T04:26:23.450Z,7.90
2018-10-05T04:28:52.220Z,7.90
2018-10-05T04:31:21.236Z,7.90
2018-10-05T04:33:49.962Z,7.80
2018-10-05T04:36:18.935Z,7.90
2018-10-05T04:38:48.059Z,7.90
2018-10-05T04:41:16.953Z,7.80
2018-10-05T04:43:45.680Z,7.80
2018-10-05T04:46:14.564Z,7.70
2018-10-05T04:48:43.273Z,7.80
2018-10-05T04:51:12.411Z,7.70
2018-10-05T04:53:41.249Z,7.70
2018-10-05T04:56:10.080Z,7.70
2018-10-05T04:58:39.129Z,7.70
2018-10-05T05:01:08.175Z,7.70
2018-10-05T05:03:37.535Z,7.70
2018-10-05T05:06:06.507Z,7.70
2018-10-05T05:08:35.841Z,7.70
2018-10-05T05:11:04.531Z,7.70
2018-10-05T05:13:33.733Z,7.70
2018-10-05T05:16:02.485Z,7.70
2018-10-05T05:18:31.063Z,7.70
2018-10-05T05:20:59.669Z,7.70
2018-10-05T05:23:28.356Z,7.70
2018-10-05T05:25:57.471Z,7.60
2018-10-05T05:28:26.092Z,7.60
2018-10-05T05:30:54.940Z,7.60
2018-10-05T05:33:24.224Z,7.60
2018-10-05T05:35:53.502Z,7.60
2018-10-05T05:38:22.202Z,7.70
2018-10-05T05:40:51.766Z,7.70
2018-10-05T05:43:20.372Z,7.70
2018-10-05T05:45:49.387Z,7.80
2018-10-05T05:48:18.559Z,7.90
2018-10-05T05:50:47.336Z,8.00
2018-10-05T05:53:16.777Z,8.20
2018-10-05T05:55:46.803Z,8.30
2018-10-05T05:58:15.520Z,8.50
2018-10-05T06:00:44.582Z,8.60
2018-10-05T06:03:13.145Z,8.70
2018-10-05T06:05:41.743Z,8.80
2018-10-05T06:08:10.305Z,9.00
2018-10-05T06:10:38.710Z,9.00
2018-10-05T06:13:07.305Z,9.10
2018-10-05T06:15:35.866Z,9.20
2018-10-05T06:18:05.017Z,9.30
2018-10-05T06:20:34.116Z,9.40
2018-10-05T06:23:03.183Z,9.40
2018-10-05T06:25:32.049Z,9.50
2018-10-05T06:28:01.068Z,9.60
2018-10-05T06:30:29.978Z,9.70
2018-10-05T06:32:59.089Z,9.80
2018-10-05T06:35:28.354Z,10.00
2018-10-05T06:37:57.374Z,10.20
2018-10-05T06:40:26.972Z,10.40
2018-10-05T06:42:55.879Z,10.70
2018-10-05T06:45:24.789Z,11.00
2018-10-05T06:47:53.824Z,11.40
2018-10-05T06:50:22.413Z,11.80
2018-10-05T06:52:51.160Z,12.10
2018-10-05T06:55:19.727Z,12.40
2018-10-05T06:57:48.429Z,13.00
2018-10-05T07:00:17.196Z,13.90
2018-10-05T07:02:45.953Z,15.00
2018-10-05T07:05:14.513Z,16.10
2018-10-05T07:07:43.165Z,17.10
2018-10-05T07:10:11.571Z,18.00
2018-10-05T07:12:40.081Z,18.70
2018-10-05T07:15:08.546Z,19.30
2018-10-05T07:17:37.005Z,19.90
2018-10-05T07:20:05.496Z,20.40
2018-10-05T07:22:33.989Z,20.80
2018-10-05T07:25:02.354Z,21.20
2018-10-05T07:27:31.132Z,21.70
2018-10-05T07:30:00.386Z,22.20
2018-10-05T07:32:29.244Z,22.60
2018-10-05T07:34:57.848Z,22.90
2018-10-05T07:37:26.512Z,23.10
2018-10-05T07:39:54.970Z,23.40
2018-10-05T07:42:23.596Z,23.60
2018-10-05T07:44:52.031Z,23.80
2018-10-05T07:47:20.707Z,23.60
2018-10-05T07:49:49.565Z,23.40
2018-10-05T07:52:18.424Z,23.40
2018-10-05T07:54:47.625Z,23.50
2018-10-05T07:57:17.150Z,23.60
2018-10-05T07:59:46.105Z,24.00
2018-10-05T08:02:14.874Z,24.00
2018-10-05T08:04:43.808Z,24.10
2018-10-05T08:07:13.093Z,24.30
2018-10-05T08:09:42.222Z,24.70
2018-10-05T08:12:12.604Z,25.30
2018-10-05T08:14:41.675Z,25.40
2018-10-05T08:17:10.806Z,25.50
2018-10-05T08:19:40.117Z,25.50
2018-10-05T08:22:08.931Z,25.60
2018-10-05T08:24:37.661Z,25.80
2018-10-05T08:27:07.361Z,26.30
2018-10-05T08:29:36.699Z,26.70
2018-10-05T08:32:06.033Z,27.20
2018-10-05T08:34:35.426Z,27.40
2018-10-05T08:37:03.905Z,27.60
2018-10-05T08:39:32.877Z,27.70
2018-10-05T08:42:01.809Z,27.90
2018-10-05T08:44:31.049Z,27.90
2018-10-05T08:46:59.960Z,27.80
2018-10-05T08:49:28.720Z,27.90
2018-10-05T08:51:57.553Z,27.80
2018-10-05T08:54:26.285Z,27.80
2018-10-05T08:56:55.601Z,27.70
2018-10-05T08:59:24.766Z,27.60
2018-10-05T09:01:53.713Z,27.50
2018-10-05T09:04:22.326Z,27.40
2018-10-05T09:06:51.452Z,27.20
2018-10-05T09:09:20.386Z,27.20
2018-10-05T09:11:49.695Z,27.50
2018-10-05T09:14:18.987Z,27.60
2018-10-05T09:16:47.961Z,27.70
2018-10-05T09:19:16.564Z,27.80
2018-10-05T09:21:45.092Z,27.90
2018-10-05T09:24:13.544Z,27.70
2018-10-05T09:26:42.060Z,27.50
2018-10-05T09:29:10.925Z,27.50
2018-10-05T09:31:39.643Z,27.50
2018-10-05T09:34:08.434Z,27.70
2018-10-05T09:36:37.611Z,27.90
2018-10-05T09:39:07.917Z,27.90
2018-10-05T09:41:37.028Z,27.80
2018-10-05T09:44:06.118Z,28.20
2018-10-05T09:46:35.295Z,28.30
2018-10-05T09:49:04.254Z,28.50
2018-10-05T09:51:33.224Z,28.50
2018-10-05T09:54:02.224Z,28.30
2018-10-05T09:56:31.398Z,27.80
2018-10-05T09:59:00.644Z,27.70
2018-10-05T10:01:34.408Z,27.90
2018-10-05T10:04:02.949Z,28.20
2018-10-05T10:06:32.038Z,28.40
2018-10-05T10:09:00.876Z,28.30
2018-10-05T10:11:29.681Z,28.20
2018-10-05T10:13:58.633Z,28.30
2018-10-05T10:16:27.522Z,28.60
2018-10-05T10:18:56.588Z,28.70
2018-10-05T10:21:25.674Z,28.70
2018-10-05T10:23:55.337Z,28.30
2018-10-05T10:26:24.288Z,28.20
2018-10-05T10:28:53.595Z,28.10
2018-10-05T10:31:22.906Z,27.80
2018-10-05T10:33:51.730Z,27.60
2018-10-05T10:36:23.221Z,27.20
2018-10-05T10:38:52.558Z,26.80
2018-10-05T10:41:21.485Z,26.40
2018-10-05T10:43:50.156Z,25.60
2018-10-05T10:46:18.814Z,24.80
2018-10-05T10:48:47.896Z,24.10
2018-10-05T10:51:17.088Z,23.40
2018-10-05T10:53:46.333Z,22.90
2018-10-05T10:56:15.074Z,22.60
2018-10-05T10:58:43.958Z,22.40
2018-10-05T11:01:14.446Z,22.20
2018-10-05T11:03:43.725Z,22.20
2018-10-05T11:06:12.432Z,22.20
2018-10-05T11:08:41.313Z,22.20
2018-10-05T11:11:10.463Z,22.20
2018-10-05T11:13:39.147Z,22.20
2018-10-05T11:16:08.468Z,22.00
2018-10-05T11:18:37.460Z,21.90
2018-10-05T11:21:06.928Z,21.70
2018-10-05T11:23:36.341Z,21.70
2018-10-05T11:26:05.987Z,21.60
2018-10-05T11:28:34.982Z,21.50
2018-10-05T11:31:04.221Z,21.50
2018-10-05T11:33:33.483Z,21.60
2018-10-05T11:36:02.757Z,21.60
2018-10-05T11:38:32.202Z,21.60
2018-10-05T11:41:01.714Z,21.80
2018-10-05T11:43:31.649Z,21.90
2018-10-05T11:46:01.408Z,21.90
2018-10-05T11:48:30.685Z,22.00
2018-10-05T11:50:59.862Z,21.90
2018-10-05T11:53:29.511Z,21.90
2018-10-05T11:55:59.411Z,22.00
2018-10-05T11:58:28.640Z,22.10
2018-10-05T12:00:57.900Z,22.00
2018-10-05T12:03:27.810Z,22.10
2018-10-05T12:05:57.065Z,22.20
2018-10-05T12:08:26.244Z,22.20
2018-10-05T12:10:55.425Z,22.20
2018-10-05T12:13:25.106Z,22.20
2018-10-05T12:15:54.338Z,22.20
2018-10-05T12:18:24.142Z,22.20
2018-10-05T12:20:53.514Z,22.20
2018-10-05T12:23:23.145Z,22.20
2018-10-05T12:25:52.431Z,22.20
2018-10-05T12:28:22.253Z,22.30
2018-10-05T12:30:52.223Z,22.20
2018-10-05T12:33:21.500Z,22.20
2018-10-05T12:35:50.836Z,22.20
2018-10-05T12:38:19.886Z,22.20
2018-10-05T12:40:49.202Z,22.20
2018-10-05T12:43:18.372Z,22.20
2018-10-05T12:45:48.012Z,22.20
2018-10-05T12:48:16.842Z,22.30
2018-10-05T12:50:45.822Z,22.30
2018-10-05T12:53:15.770Z,22.30
2018-10-05T12:55:45.190Z,22.20
2018-10-05T12:58:14.744Z,22.20
2018-10-05T13:00:43.990Z,22.20
2018-10-05T13:03:13.015Z,22.20
2018-10-05T13:05:41.970Z,22.20
2018-10-05T13:08:11.167Z,22.30
2018-10-05T13:10:40.559Z,22.30
2018-10-05T13:13:09.787Z,22.20
2018-10-05T13:15:39.046Z,22.30
2018-10-05T13:18:08.882Z,22.30
2018-10-05T13:20:38.621Z,22.40
2018-10-05T13:23:08.343Z,22.50
2018-10-05T13:25:37.581Z,22.40
2018-10-05T13:28:07.338Z,22.40
2018-10-05T13:30:36.665Z,22.50
2018-10-05T13:33:05.799Z,22.50
2018-10-05T13:35:34.862Z,22.50
2018-10-05T13:38:04.589Z,22.50
2018-10-05T13:40:33.609Z,22.50
2018-10-05T13:43:02.513Z,22.50
2018-10-05T13:45:31.318Z,22.50
2018-10-05T13:47:59.925Z,22.50
2018-10-05T13:50:28.587Z,22.40
2018-10-05T13:52:57.061Z,22.50
2018-10-05T13:55:25.643Z,22.50
2018-10-05T13:57:54.108Z,22.50
2018-10-05T14:00:22.804Z,22.50
2018-10-05T14:02:51.440Z,22.50
2018-10-05T14:05:19.876Z,22.60
2018-10-05T14:07:48.334Z,22.60
2018-10-05T14:10:16.940Z,22.60
2018-10-05T14:12:45.699Z,22.60
2018-10-05T14:15:14.447Z,22.60
2018-10-05T14:17:43.136Z,22.60
2018-10-05T14:20:12.042Z,22.60
2018-10-05T14:22:40.710Z,22.70
2018-10-05T14:25:09.263Z,22.70
2018-10-05T14:27:39.237Z,22.80
2018-10-05T14:30:07.812Z,22.80
2018-10-05T14:32:36.400Z,22.80
2018-10-05T14:35:05.440Z,22.70
2018-10-05T14:37:34.337Z,22.60
2018-10-05T14:40:03.202Z,22.70
2018-10-05T14:42:31.892Z,22.70
2018-10-05T14:45:00.402Z,22.70
2018-10-05T14:47:28.997Z,22.60
2018-10-05T14:49:57.670Z,22.60
2018-10-05T14:52:26.687Z,22.60
2018-10-05T14:54:56.176Z,22.60
2018-10-05T14:57:24.742Z,22.60
2018-10-05T14:59:53.989Z,22.50
2018-10-05T15:02:22.597Z,22.40
2018-10-05T15:04:51.258Z,22.40
2018-10-05T15:07:20.002Z,22.40
2018-10-05T15:09:48.482Z,22.40
2018-10-05T15:12:17.210Z,22.40
2018-10-05T15:14:45.716Z,22.30
2018-10-05T15:17:14.489Z,22.30
2018-10-05T15:19:43.012Z,22.30
2018-10-05T15:22:11.742Z,22.20
2018-10-05T15:24:40.349Z,22.20
2018-10-05T15:27:09.850Z,22.20
2018-10-05T15:29:39.026Z,22.10
2018-10-05T15:32:08.185Z,22.10
2018-10-05T15:34:36.778Z,22.00
2018-10-05T15:37:05.541Z,22.00
2018-10-05T15:39:34.135Z,22.00
2018-10-05T15:42:02.878Z,21.90
2018-10-05T15:44:31.464Z,21.80
2018-10-05T15:47:01.838Z,21.80
2018-10-05T15:49:31.248Z,21.80
2018-10-05T15:52:00.092Z,21.70
2018-10-05T15:54:28.754Z,21.70
2018-10-05T15:56:57.290Z,21.70
2018-10-05T15:59:26.518Z,21.60
2018-10-05T16:01:55.433Z,21.60
2018-10-05T16:04:23.930Z,21.60
2018-10-05T16:06:52.571Z,21.50
2018-10-05T16:09:21.440Z,21.50
2018-10-05T16:11:50.039Z,21.40
2018-10-05T16:14:18.827Z,21.30
2018-10-05T16:16:47.938Z,21.30
2018-10-05T16:19:16.956Z,21.20
2018-10-05T16:21:45.494Z,21.10
2018-10-05T16:24:20.505Z,21.00
2018-10-05T16:26:49.315Z,21.00
2018-10-05T16:29:17.858Z,20.90
2018-10-05T16:31:46.588Z,20.70
2018-10-05T16:34:15.170Z,20.70
2018-10-05T16:36:43.923Z,20.60
2018-10-05T16:39:12.713Z,20.50
2018-10-05T16:41:41.396Z,20.40
2018-10-05T16:44:10.114Z,20.30
2018-10-05T16:46:40.304Z,20.20
2018-10-05T16:49:10.651Z,20.10
2018-10-05T16:51:40.104Z,20.00
2018-10-05T16:54:09.034Z,19.90
2018-10-05T16:56:38.434Z,19.80
2018-10-05T16:59:07.534Z,19.60
2018-10-05T17:01:37.317Z,19.50
2018-10-05T17:04:06.569Z,19.30
2018-10-05T17:06:35.169Z,19.20
2018-10-05T17:09:07.371Z,19.00
2018-10-05T17:11:37.603Z,18.90
2018-10-05T17:14:06.399Z,18.80
2018-10-05T17:16:34.966Z,18.70
2018-10-05T17:19:04.147Z,18.60
2018-10-05T17:21:33.293Z,18.50
2018-10-05T17:24:02.281Z,18.40
2018-10-05T17:26:30.787Z,18.30
2018-10-05T17:28:59.619Z,18.20
2018-10-05T17:31:28.223Z,18.20
2018-10-05T17:33:56.893Z,18.10
2018-10-05T17:36:25.482Z,18.00
2018-10-05T17:38:54.182Z,18.10
2018-10-05T17:41:22.922Z,18.00
2018-10-05T17:43:52.604Z,17.90
2018-10-05T17:46:21.177Z,17.80
2018-10-05T17:48:49.685Z,17.80
2018-10-05T17:51:18.588Z,17.70
2018-10-05T17:53:47.223Z,17.70
2018-10-05T17:56:15.818Z,17.70
2018-10-05T17:58:44.583Z,17.60
2018-10-05T18:01:13.336Z,17.60
2018-10-05T18:03:42.040Z,17.50
2018-10-05T18:06:10.972Z,17.40
2018-10-05T18:08:39.712Z,17.40
2018-10-05T18:11:08.393Z,17.30
2018-10-05T18:13:36.963Z,17.30
2018-10-05T18:16:05.671Z,17.30
2018-10-05T18:18:34.155Z,17.30
2018-10-05T18:21:03.025Z,17.30
2018-10-05T18:23:31.493Z,17.30
2018-10-05T18:26:00.011Z,17.30
2018-10-05T18:28:28.599Z,17.30
2018-10-05T18:30:57.282Z,17.20
2018-10-05T18:33:25.801Z,17.20
2018-10-05T18:35:54.484Z,17.20
2018-10-05T18:38:23.126Z,17.10
2018-10-05T18:40:51.928Z,17.20
2018-10-05T18:43:20.438Z,17.10
2018-10-05T18:45:49.980Z,17.10
2018-10-05T18:48:18.732Z,17.00
2018-10-05T18:50:47.791Z,16.90
2018-10-05T18:53:16.431Z,16.90
2018-10-05T18:55:45.140Z,16.90
2018-10-05T18:58:13.651Z,16.80
2018-10-05T19:00:42.418Z,16.70
2018-10-05T19:03:11.057Z,16.70
2018-10-05T19:05:39.658Z,16.60
2018-10-05T19:08:08.124Z,16.60
2018-10-05T19:10:36.768Z,16.50
2018-10-05T19:13:05.605Z,16.50
2018-10-05T19:15:34.556Z,16.40
2018-10-05T19:18:03.397Z,16.30
2018-10-05T19:20:32.189Z,16.30
2018-10-05T19:23:00.921Z,16.20
2018-10-05T19:25:29.627Z,16.20
2018-10-05T19:27:58.250Z,16.10
2018-10-05T19:30:27.117Z,16.00
2018-10-05T19:32:55.915Z,16.00
2018-10-05T19:35:24.517Z,15.90
2018-10-05T19:37:53.304Z,15.80
2018-10-05T19:40:22.021Z,15.80
2018-10-05T19:42:50.609Z,15.70
2018-10-05T19:45:19.328Z,15.70
2018-10-05T19:47:48.260Z,15.70
2018-10-05T19:50:16.831Z,15.60
2018-10-05T19:52:45.467Z,15.60
2018-10-05T19:55:14.057Z,15.50
2018-10-05T19:57:42.757Z,15.50
2018-10-05T20:00:11.257Z,15.50
2018-10-05T20:02:39.899Z,15.40
2018-10-05T20:05:08.518Z,15.50
2018-10-05T20:07:37.071Z,15.40
2018-10-05T20:10:05.667Z,15.40
2018-10-05T20:12:35.358Z,15.30
2018-10-05T20:15:04.319Z,15.30
2018-10-05T20:17:33.217Z,15.30
2018-10-05T20:20:01.661Z,15.30
2018-10-05T20:22:30.238Z,15.30
2018-10-05T20:24:58.777Z,15.20
2018-10-05T20:27:27.576Z,15.30
2018-10-05T20:29:56.122Z,15.30
2018-10-05T20:32:24.762Z,15.30
2018-10-05T20:34:53.380Z,15.20
2018-10-05T20:37:22.244Z,15.20
2018-10-05T20:39:50.637Z,15.20
2018-10-05T20:42:19.234Z,15.30
2018-10-05T20:44:47.700Z,15.30
2018-10-05T20:47:16.538Z,15.20
2018-10-05T20:49:45.043Z,15.30
2018-10-05T20:52:13.825Z,15.20
2018-10-05T20:54:42.721Z,15.20
2018-10-05T20:57:12.208Z,15.10
2018-10-05T20:59:40.863Z,15.10
2018-10-05T21:02:09.446Z,15.10
2018-10-05T21:04:37.990Z,15.00
2018-10-05T21:07:06.834Z,15.00
2018-10-05T21:09:35.331Z,14.90
2018-10-05T21:12:04.099Z,14.90
2018-10-05T21:14:32.578Z,14.80
2018-10-05T21:17:01.105Z,14.80
2018-10-05T21:19:29.554Z,14.70
2018-10-05T21:21:58.085Z,14.70
2018-10-05T21:24:26.571Z,14.70
2018-10-05T21:26:56.342Z,14.60
2018-10-05T21:29:24.797Z,14.60
2018-10-05T21:31:53.337Z,14.60
2018-10-05T21:34:21.825Z,14.60
2018-10-05T21:36:50.528Z,14.60
2018-10-05T21:39:19.111Z,14.60
2018-10-05T21:41:47.822Z,14.50
2018-10-05T21:44:16.351Z,14.50
2018-10-05T21:46:44.941Z,14.50
2018-10-05T21:49:13.497Z,14.40
2018-10-05T21:51:42.215Z,14.30
2018-10-05T21:54:10.779Z,14.30
2018-10-05T21:56:39.350Z,14.20
2018-10-05T21:59:08.270Z,14.20
2018-10-05T22:01:36.931Z,14.10
2018-10-05T22:04:05.510Z,14.10
2018-10-05T22:06:34.362Z,14.00
2018-10-05T22:09:03.417Z,14.00
2018-10-05T22:11:32.114Z,13.90
2018-10-05T22:14:00.906Z,13.90
2018-10-05T22:16:29.386Z,13.90
2018-10-05T22:18:57.985Z,13.90
2018-10-05T22:21:26.519Z,13.80
2018-10-05T22:23:54.929Z,13.80
2018-10-05T22:26:23.653Z,13.80
2018-10-05T22:28:52.277Z,13.80
2018-10-05T22:31:20.983Z,13.80
2018-10-05T22:33:49.538Z,13.80
2018-10-05T22:36:18.278Z,13.80
2018-10-05T22:38:46.826Z,13.80
2018-10-05T22:41:15.552Z,13.70
2018-10-05T22:43:43.988Z,13.70
2018-10-05T22:46:12.680Z,13.70
2018-10-05T22:48:41.131Z,13.70
2018-10-05T22:51:09.713Z,13.70
2018-10-05T22:53:38.789Z,13.60
2018-10-05T22:56:07.724Z,13.60
2018-10-05T22:58:36.201Z,13.60
2018-10-05T23:01:05.174Z,13.60
2018-10-05T23:03:34.564Z,13.50
2018-10-05T23:06:03.116Z,13.50
2018-10-05T23:08:31.677Z,13.50
2018-10-05T23:11:00.502Z,13.50
2018-10-05T23:13:29.123Z,13.40
2018-10-05T23:15:57.891Z,13.40
2018-10-05T23:18:26.677Z,13.40
2018-10-05T23:20:55.228Z,13.40
2018-10-05T23:23:23.971Z,13.30
2018-10-05T23:25:52.461Z,13.30
2018-10-05T23:28:21.480Z,13.30
2018-10-05T23:30:50.077Z,13.20
2018-10-05T23:33:18.970Z,13.20
2018-10-05T23:35:47.440Z,13.20
2018-10-05T23:38:16.101Z,13.20
2018-10-05T23:40:44.543Z,13.10
2018-10-05T23:43:13.050Z,13.10
2018-10-05T23:45:41.669Z,13.00
2018-10-05T23:48:10.480Z,13.00
2018-10-05T23:50:40.269Z,13.00
2018-10-05T23:53:08.812Z,12.90
2018-10-05T23:55:37.488Z,12.90
2018-10-05T23:58:06.214Z,12.90
